Aérodrome :
LOGIN :

S'inscrire | Disclaimer

   EN    FR    IT 

 










Légende :    VFR   VFR Marginal   IFR   IFR Intensif   IFR Très Intensif
Visi : 
Plafond : 
>= 8 km
>= 3000ft
5 à 8 km
1000 à 3000 ft
1500m à 5 km
500 à 1000 ft
800 à 1500m
200 à 500 ft
< 800m
< 200 ft
Symboles :   Orages  Brouillard  Fortes neiges  Fortes précipitations  Vent > 20 kt
SIGMETs :   Divers  Orages  Givrage  Turbulence  Onde Orograph.  Cendres Volcan.







- Altitude de l'aérodrome : 16 ft
- Code IATA : SDR


LEXJ - Santander Cantabria

DERNIER METAR :
  • 162200Z 21014G24KT 170V260 CAVOK 19/01 Q1019

METARs EXPIRÉS :
  • 162130Z 21014G25KT 160V260 CAVOK 19/03 Q1019
  • 162100Z 21014G24KT 170V260 CAVOK 19/05 Q1019
  • 162030Z 22012KT 180V280 CAVOK 19/05 Q1019
  • 162000Z 22010KT 170V260 CAVOK 19/05 Q1019
  • 161930Z 22010G22KT 160V250 CAVOK 19/05 Q1019

TAF TAF LEXJ
Valide du 16 à 21h jusqu'au 17 à 21h UTC


162000Z 1621/1721 21012KT CAVOK TX22/1712Z TN12/1721Z
TEMPO 1621/1715 21015G30KT
TEMPO 1715/1721 VRB05KT
Pas de NOTAMs connus pour ce terrain.



MET'MAP, la Météo Aéronautique d'un coup d'oeil ! - Copyright ORBIFLY Décembre 2007 - Disclaimer

ORBIFLY MET'MAP TEAM :

Programmation & Développement : Alexandra Zaïnal
Conception & Développement : Baudouin d'Aumeries
Co-Programmation & Développement : Marc-Olivier Méhu
Soutien technique & logistique : Manuel Goepfert

Contact : metmap@orbifly.com




SOURCES & CREDITS :

   NOAA